createdAt,value
2023-02-25T00:01:41.753Z,75.27
2023-02-25T00:04:12.269Z,75.24
2023-02-25T00:06:40.111Z,75.29
2023-02-25T00:09:11.189Z,75.44
2023-02-25T00:11:39.469Z,75.45
2023-02-25T00:14:09.292Z,75.30
2023-02-25T00:16:37.270Z,75.33
2023-02-25T00:19:05.188Z,75.39
2023-02-25T00:21:33.128Z,75.21
2023-02-25T00:24:15.322Z,75.22
2023-02-25T00:26:45.199Z,75.12
2023-02-25T00:29:14.727Z,74.95
2023-02-25T00:31:42.837Z,74.97
2023-02-25T00:34:10.840Z,74.97
2023-02-25T00:36:39.777Z,75.07
2023-02-25T00:39:09.241Z,74.91
2023-02-25T00:41:37.526Z,74.87
2023-02-25T00:44:06.035Z,74.89
2023-02-25T00:46:34.633Z,74.94
2023-02-25T00:49:02.872Z,75.08
2023-02-25T00:51:33.073Z,74.85
2023-02-25T00:54:01.026Z,74.95
2023-02-25T00:56:28.963Z,75.00
2023-02-25T00:58:56.856Z,74.84
2023-02-25T01:01:27.998Z,74.79
2023-02-25T01:03:57.177Z,74.65
2023-02-25T01:06:29.781Z,74.78
2023-02-25T01:08:59.466Z,74.86
2023-02-25T01:11:31.241Z,74.80
2023-02-25T01:14:02.308Z,74.77
2023-02-25T01:16:32.142Z,74.87
2023-02-25T01:19:05.003Z,74.80
2023-02-25T01:21:39.007Z,74.91
2023-02-25T01:24:11.591Z,74.95
2023-02-25T01:26:42.230Z,74.90
2023-02-25T01:29:13.159Z,74.86
2023-02-25T01:31:42.104Z,74.92
2023-02-25T01:34:13.904Z,74.83
2023-02-25T01:36:43.194Z,74.84
2023-02-25T01:39:12.568Z,74.73
2023-02-25T01:41:40.636Z,74.61
2023-02-25T01:44:19.227Z,74.75
2023-02-25T01:46:49.776Z,74.78
2023-02-25T01:49:36.501Z,74.74
2023-02-25T01:52:06.317Z,74.79
2023-02-25T01:54:36.896Z,74.72
2023-02-25T01:57:10.596Z,74.74
2023-02-25T01:59:39.485Z,74.71
2023-02-25T02:02:17.329Z,74.81
2023-02-25T02:04:51.206Z,74.74
2023-02-25T02:07:22.675Z,74.70
2023-02-25T02:09:56.519Z,74.82
2023-02-25T02:12:27.590Z,74.86
2023-02-25T02:14:59.115Z,74.94
2023-02-25T02:17:31.730Z,74.82
2023-02-25T02:20:13.143Z,74.95
2023-02-25T02:23:08.301Z,75.23
2023-02-25T02:26:09.764Z,75.25
2023-02-25T02:28:49.565Z,75.12
2023-02-25T02:31:51.408Z,75.18
2023-02-25T02:34:46.840Z,75.29
2023-02-25T02:37:31.203Z,75.20
2023-02-25T02:39:59.001Z,75.14
2023-02-25T02:42:53.673Z,75.13
2023-02-25T02:45:29.190Z,75.06
2023-02-25T02:48:02.341Z,74.84
2023-02-25T02:50:50.849Z,74.89
2023-02-25T02:53:25.418Z,74.77
2023-02-25T02:55:56.780Z,74.86
2023-02-25T02:58:41.421Z,74.66
2023-02-25T03:01:17.503Z,74.69
2023-02-25T03:03:51.892Z,74.47
2023-02-25T03:06:27.142Z,74.37
2023-02-25T03:08:59.769Z,74.32
2023-02-25T03:11:27.762Z,74.26
2023-02-25T03:13:55.653Z,74.25
2023-02-25T03:16:33.995Z,74.18
2023-02-25T03:19:13.840Z,74.27
2023-02-25T03:21:46.469Z,74.23
2023-02-25T03:24:23.866Z,74.15
2023-02-25T03:26:53.537Z,74.18
2023-02-25T03:29:25.779Z,74.13
2023-02-25T03:31:58.524Z,74.11
2023-02-25T03:34:49.110Z,73.99
2023-02-25T03:37:28.637Z,74.12
2023-02-25T03:40:01.158Z,74.20
2023-02-25T03:42:33.773Z,74.16
2023-02-25T03:45:06.051Z,74.11
2023-02-25T03:47:37.202Z,74.04
2023-02-25T03:50:08.235Z,73.85
2023-02-25T03:52:37.225Z,73.80
2023-02-25T03:55:11.784Z,73.80
2023-02-25T03:57:42.060Z,73.73
2023-02-25T04:00:22.863Z,73.69
2023-02-25T04:02:51.723Z,73.75
2023-02-25T04:05:22.142Z,73.77
2023-02-25T04:07:49.994Z,73.60
2023-02-25T04:10:18.547Z,73.43
2023-02-25T04:12:47.357Z,73.44
2023-02-25T04:15:15.270Z,73.49
2023-02-25T04:17:45.124Z,73.38
2023-02-25T04:20:14.729Z,73.32
2023-02-25T04:22:43.156Z,73.50
2023-02-25T04:25:11.338Z,73.45
2023-02-25T04:27:40.109Z,73.42
2023-02-25T04:30:09.244Z,73.23
2023-02-25T04:32:37.149Z,73.20
2023-02-25T04:35:07.387Z,73.20
2023-02-25T04:37:35.305Z,73.19
2023-02-25T04:40:05.148Z,73.25
2023-02-25T04:42:32.962Z,73.17
2023-02-25T04:45:00.860Z,73.20
2023-02-25T04:47:28.754Z,73.17
2023-02-25T04:49:56.553Z,73.32
2023-02-25T04:52:24.386Z,73.30
2023-02-25T04:54:52.261Z,73.35
2023-02-25T04:57:20.369Z,73.28
2023-02-25T04:59:48.393Z,73.23
2023-02-25T05:02:16.361Z,73.32
2023-02-25T05:04:44.427Z,73.52
2023-02-25T05:07:12.306Z,73.63
2023-02-25T05:09:40.136Z,73.59
2023-02-25T05:12:08.090Z,73.70
2023-02-25T05:14:37.322Z,73.69
2023-02-25T05:17:05.155Z,73.77
2023-02-25T05:19:33.255Z,73.87
2023-02-25T05:22:01.148Z,73.94
2023-02-25T05:24:28.998Z,73.84
2023-02-25T05:26:56.834Z,73.98
2023-02-25T05:29:24.698Z,74.07
2023-02-25T05:31:52.710Z,73.95
2023-02-25T05:34:22.799Z,74.01
2023-02-25T05:36:50.612Z,74.04
2023-02-25T05:39:18.448Z,74.05
2023-02-25T05:41:46.311Z,74.07
2023-02-25T05:44:14.342Z,73.94
2023-02-25T05:46:42.206Z,74.00
2023-02-25T05:49:11.131Z,74.02
2023-02-25T05:51:38.943Z,74.10
2023-02-25T05:54:06.829Z,74.21
2023-02-25T05:56:34.702Z,74.19
2023-02-25T05:59:02.550Z,74.14
2023-02-25T06:01:31.711Z,74.08
2023-02-25T06:03:59.679Z,74.10
2023-02-25T06:06:29.908Z,74.17
2023-02-25T06:08:58.532Z,74.18
2023-02-25T06:11:29.394Z,74.26
2023-02-25T06:13:58.887Z,74.35
2023-02-25T06:16:31.974Z,74.57
2023-02-25T06:19:01.716Z,74.46
2023-02-25T06:21:30.306Z,74.67
2023-02-25T06:23:58.492Z,74.67
2023-02-25T06:26:26.798Z,74.91
2023-02-25T06:28:55.300Z,75.04
2023-02-25T06:31:24.995Z,75.05
2023-02-25T06:33:54.935Z,75.00
2023-02-25T06:36:23.202Z,75.10
2023-02-25T06:38:51.356Z,75.13
2023-02-25T06:41:22.959Z,75.14
2023-02-25T06:43:52.521Z,75.25
2023-02-25T06:46:23.330Z,75.35
2023-02-25T06:48:51.816Z,75.37
2023-02-25T06:51:19.712Z,75.36
2023-02-25T06:53:47.706Z,75.36
2023-02-25T06:56:16.694Z,75.35
2023-02-25T06:58:44.609Z,75.27
2023-02-25T07:01:16.178Z,75.10
2023-02-25T07:03:44.624Z,75.33
2023-02-25T07:06:15.838Z,75.27
2023-02-25T07:08:45.003Z,75.24
2023-02-25T07:11:18.827Z,75.12
2023-02-25T07:13:48.202Z,75.24
2023-02-25T07:16:17.116Z,75.21
2023-02-25T07:18:46.435Z,74.91
2023-02-25T07:21:14.663Z,74.65
2023-02-25T07:23:43.184Z,74.64
2023-02-25T07:26:13.004Z,74.70
2023-02-25T07:28:42.144Z,74.54
2023-02-25T07:31:14.464Z,74.61
2023-02-25T07:33:43.467Z,74.55
2023-02-25T07:36:11.999Z,74.70
2023-02-25T07:38:40.685Z,74.61
2023-02-25T07:41:11.619Z,74.71
2023-02-25T07:43:40.312Z,74.63
2023-02-25T07:46:09.524Z,74.59
2023-02-25T07:48:37.493Z,74.50
2023-02-25T07:51:15.692Z,74.28
2023-02-25T07:53:43.655Z,74.40
2023-02-25T07:56:12.265Z,74.40
2023-02-25T07:58:40.362Z,74.51
2023-02-25T08:01:09.878Z,74.56
2023-02-25T08:03:38.534Z,74.54
2023-02-25T08:06:08.262Z,74.64
2023-02-25T08:08:37.332Z,74.70
2023-02-25T08:11:06.873Z,74.73
2023-02-25T08:13:34.983Z,74.80
2023-02-25T08:16:12.162Z,74.69
2023-02-25T08:18:43.950Z,74.88
2023-02-25T08:21:18.069Z,74.75
2023-02-25T08:23:46.016Z,74.84
2023-02-25T08:26:17.594Z,74.92
2023-02-25T08:28:46.201Z,74.89
2023-02-25T08:31:15.266Z,74.79
2023-02-25T08:33:49.285Z,74.65
2023-02-25T08:36:20.671Z,74.83
2023-02-25T08:38:50.206Z,74.88
2023-02-25T08:41:19.879Z,75.48
2023-02-25T08:43:54.454Z,76.16
2023-02-25T08:46:24.463Z,76.55
2023-02-25T08:48:54.269Z,76.79
2023-02-25T08:51:25.027Z,75.65
2023-02-25T08:53:53.115Z,75.27
2023-02-25T08:56:20.957Z,75.25
2023-02-25T08:58:48.784Z,75.28
2023-02-25T09:01:17.849Z,75.25
2023-02-25T09:03:53.554Z,74.99
2023-02-25T09:06:24.292Z,75.16
2023-02-25T09:08:52.529Z,75.63
2023-02-25T09:11:21.263Z,75.54
2023-02-25T09:13:49.408Z,75.67
2023-02-25T09:16:17.893Z,75.51
2023-02-25T09:18:47.556Z,75.52
2023-02-25T09:21:15.808Z,75.31
2023-02-25T09:23:43.882Z,75.33
2023-02-25T09:26:12.479Z,75.10
2023-02-25T09:28:40.492Z,74.70
2023-02-25T09:31:08.965Z,74.12
2023-02-25T09:33:37.994Z,74.26
2023-02-25T09:36:17.818Z,74.04
2023-02-25T09:38:47.305Z,74.15
2023-02-25T09:41:46.763Z,73.97
2023-02-25T09:44:20.389Z,73.76
2023-02-25T09:46:51.845Z,73.33
2023-02-25T09:49:36.255Z,73.66
2023-02-25T09:52:18.704Z,73.91
2023-02-25T09:54:48.747Z,73.93
2023-02-25T09:57:20.158Z,73.99
2023-02-25T09:59:50.033Z,74.03
2023-02-25T10:02:36.996Z,74.12
2023-02-25T10:05:21.948Z,73.46
2023-02-25T10:08:26.540Z,73.33
2023-02-25T10:11:02.159Z,73.20
2023-02-25T10:13:49.956Z,73.45
2023-02-25T10:16:41.715Z,73.61
2023-02-25T10:19:15.468Z,74.02
2023-02-25T10:21:54.733Z,73.95
2023-02-25T10:24:36.005Z,73.24
2023-02-25T10:27:13.962Z,73.13
2023-02-25T10:29:49.737Z,73.31
2023-02-25T10:32:31.534Z,73.19
2023-02-25T10:35:33.871Z,73.01
2023-02-25T10:38:01.977Z,73.36
2023-02-25T10:40:29.922Z,72.83
2023-02-25T10:43:10.434Z,73.12
2023-02-25T10:45:40.326Z,73.25
2023-02-25T10:48:18.791Z,73.32
2023-02-25T10:51:12.840Z,72.54
2023-02-25T10:53:53.318Z,72.53
2023-02-25T10:56:21.935Z,72.50
2023-02-25T10:59:04.837Z,72.46
2023-02-25T11:01:39.763Z,72.60
2023-02-25T11:04:14.186Z,72.41
2023-02-25T11:06:43.638Z,72.39
2023-02-25T11:09:20.442Z,72.01
2023-02-25T11:12:09.756Z,71.49
2023-02-25T11:14:39.860Z,71.10
2023-02-25T11:17:22.778Z,71.47
2023-02-25T11:20:00.318Z,71.52
2023-02-25T11:22:39.969Z,71.37
2023-02-25T11:25:17.400Z,71.38
2023-02-25T11:27:54.075Z,71.72
2023-02-25T11:30:31.324Z,71.68
2023-02-25T11:33:00.800Z,71.36
2023-02-25T11:35:39.059Z,71.66
2023-02-25T11:38:26.252Z,71.90
2023-02-25T11:40:54.938Z,71.53
2023-02-25T11:43:25.204Z,71.60
2023-02-25T11:46:00.364Z,71.89
2023-02-25T11:48:57.424Z,71.87
2023-02-25T11:51:29.527Z,72.12
2023-02-25T11:54:12.874Z,71.81
2023-02-25T11:56:48.502Z,71.83
2023-02-25T11:59:37.795Z,71.98
2023-02-25T12:02:20.770Z,71.76
2023-02-25T12:05:14.185Z,71.91
2023-02-25T12:08:19.306Z,71.90
2023-02-25T12:11:14.568Z,71.53
2023-02-25T12:14:00.628Z,71.75
2023-02-25T12:16:59.654Z,71.83
2023-02-25T12:19:41.052Z,71.88
2023-02-25T12:22:40.371Z,71.94
2023-02-25T12:25:30.794Z,72.00
2023-02-25T12:28:24.615Z,71.95
2023-02-25T12:31:26.825Z,71.99
2023-02-25T12:34:13.691Z,72.19
2023-02-25T12:36:56.283Z,71.87
2023-02-25T12:39:38.225Z,72.29
2023-02-25T12:42:38.004Z,72.64
2023-02-25T12:45:21.344Z,72.89
2023-02-25T12:48:04.441Z,73.08
2023-02-25T12:51:17.198Z,73.22
2023-02-25T12:54:22.240Z,73.30
2023-02-25T12:56:54.602Z,73.37
2023-02-25T12:59:56.562Z,72.78
2023-02-25T13:02:42.376Z,72.78
2023-02-25T13:05:15.999Z,72.80
2023-02-25T13:08:12.393Z,72.75
2023-02-25T13:11:17.711Z,72.85
2023-02-25T13:14:16.901Z,72.92
2023-02-25T13:17:15.496Z,72.76
2023-02-25T13:20:04.317Z,72.81
2023-02-25T13:23:03.273Z,72.69
2023-02-25T13:25:53.215Z,72.94
2023-02-25T13:28:45.375Z,73.16
2023-02-25T13:31:39.062Z,73.29
2023-02-25T13:34:41.374Z,73.52
2023-02-25T13:37:37.887Z,73.62
2023-02-25T13:40:26.870Z,73.84
2023-02-25T13:42:58.713Z,74.06
2023-02-25T13:45:29.702Z,74.09
2023-02-25T13:48:06.696Z,74.28
2023-02-25T13:50:54.985Z,74.22
2023-02-25T13:53:59.849Z,74.19
2023-02-25T13:56:43.764Z,74.17
2023-02-25T13:59:41.031Z,74.04
2023-02-25T14:02:24.170Z,73.92
2023-02-25T14:05:10.358Z,73.89
2023-02-25T14:08:05.830Z,74.23
2023-02-25T14:10:47.288Z,74.40
2023-02-25T14:13:16.130Z,74.49
2023-02-25T14:16:17.344Z,74.52
2023-02-25T14:18:48.179Z,74.73
2023-02-25T14:21:33.998Z,74.99
2023-02-25T14:24:19.905Z,74.77
2023-02-25T14:27:11.513Z,74.68
2023-02-25T14:30:16.597Z,74.67
2023-02-25T14:33:00.652Z,74.91
2023-02-25T14:35:55.732Z,74.97
2023-02-25T14:39:00.547Z,74.86
2023-02-25T14:41:59.105Z,74.81
2023-02-25T14:44:39.394Z,74.86
2023-02-25T14:47:17.111Z,74.82
2023-02-25T14:50:09.419Z,74.99
2023-02-25T14:52:55.790Z,75.06
2023-02-25T14:55:39.085Z,75.04
2023-02-25T14:58:37.724Z,75.03
2023-02-25T15:01:14.240Z,75.02
2023-02-25T15:04:00.425Z,75.06
2023-02-25T15:06:46.648Z,75.23
2023-02-25T15:09:59.135Z,75.33
2023-02-25T15:12:36.057Z,75.47
2023-02-25T15:15:28.896Z,75.53
2023-02-25T15:18:38.074Z,75.58
2023-02-25T15:21:41.395Z,75.51
2023-02-25T15:24:32.527Z,75.88
2023-02-25T15:27:00.847Z,75.90
2023-02-25T15:29:28.605Z,75.86
2023-02-25T15:32:21.268Z,75.98
2023-02-25T15:34:54.083Z,75.94
2023-02-25T15:37:27.885Z,75.92
2023-02-25T15:39:57.298Z,75.85
2023-02-25T15:42:49.856Z,75.88
2023-02-25T15:45:27.454Z,75.77
2023-02-25T15:48:07.646Z,75.58
2023-02-25T15:50:41.746Z,75.55
2023-02-25T15:53:11.334Z,75.62
2023-02-25T15:55:41.390Z,75.69
2023-02-25T15:58:42.888Z,75.54
2023-02-25T16:01:36.661Z,75.60
2023-02-25T16:04:34.231Z,75.65
2023-02-25T16:07:07.578Z,75.70
2023-02-25T16:09:41.987Z,75.77
2023-02-25T16:12:15.224Z,75.76
2023-02-25T16:14:44.722Z,75.92
2023-02-25T16:17:18.360Z,75.95
2023-02-25T16:19:52.518Z,76.03
2023-02-25T16:22:26.456Z,76.07
2023-02-25T16:24:56.916Z,76.08
2023-02-25T16:27:41.919Z,76.16
2023-02-25T16:30:18.809Z,76.18
2023-02-25T16:33:09.404Z,76.22
2023-02-25T16:35:44.955Z,76.33
2023-02-25T16:38:50.678Z,76.54
2023-02-25T16:41:19.996Z,77.12
2023-02-25T16:43:49.906Z,77.57
2023-02-25T16:46:22.404Z,77.56
2023-02-25T16:48:58.497Z,77.28
2023-02-25T16:51:34.536Z,77.13
2023-02-25T16:54:10.240Z,76.98
2023-02-25T16:56:39.807Z,77.05
2023-02-25T16:59:10.572Z,77.12
2023-02-25T17:01:40.006Z,77.21
2023-02-25T17:04:35.428Z,77.12
2023-02-25T17:07:27.977Z,77.43
2023-02-25T17:10:02.440Z,77.49
2023-02-25T17:12:36.590Z,77.54
2023-02-25T17:15:16.186Z,77.57
2023-02-25T17:17:45.572Z,77.68
2023-02-25T17:20:19.052Z,77.86
2023-02-25T17:22:47.023Z,77.82
2023-02-25T17:25:16.256Z,78.07
2023-02-25T17:27:47.955Z,77.93
2023-02-25T17:30:34.410Z,78.03
2023-02-25T17:33:02.338Z,77.95
2023-02-25T17:35:31.170Z,78.03
2023-02-25T17:37:59.438Z,78.10
2023-02-25T17:40:29.525Z,77.93
2023-02-25T17:43:21.285Z,77.88
2023-02-25T17:45:53.520Z,78.04
2023-02-25T17:48:27.436Z,77.92
2023-02-25T17:50:57.649Z,79.18
2023-02-25T17:53:33.465Z,82.42
2023-02-25T17:56:31.543Z,80.35
2023-02-25T17:59:28.148Z,78.95
2023-02-25T18:01:58.909Z,78.72
2023-02-25T18:04:40.142Z,79.25
2023-02-25T18:07:29.553Z,78.13
2023-02-25T18:09:57.378Z,77.80
2023-02-25T18:12:37.601Z,77.62
2023-02-25T18:15:18.545Z,77.59
2023-02-25T18:18:10.254Z,77.79
2023-02-25T18:20:42.094Z,78.03
2023-02-25T18:23:21.167Z,78.02
2023-02-25T18:26:09.195Z,78.26
2023-02-25T18:28:38.452Z,78.18
2023-02-25T18:31:06.790Z,78.28
2023-02-25T18:33:34.909Z,78.47
2023-02-25T18:36:06.740Z,78.61
2023-02-25T18:38:38.152Z,78.52
2023-02-25T18:41:06.400Z,78.68
2023-02-25T18:43:38.968Z,78.80
2023-02-25T18:46:06.930Z,78.79
2023-02-25T18:48:35.479Z,78.94
2023-02-25T18:51:05.835Z,78.83
2023-02-25T18:53:34.302Z,78.91
2023-02-25T18:56:02.106Z,79.02
2023-02-25T18:58:30.099Z,79.05
2023-02-25T19:00:59.452Z,78.96
2023-02-25T19:03:33.876Z,78.92
2023-02-25T19:06:03.516Z,79.00
2023-02-25T19:08:31.873Z,79.03
2023-02-25T19:10:59.688Z,79.10
2023-02-25T19:13:36.844Z,79.13
2023-02-25T19:16:05.347Z,79.16
2023-02-25T19:18:34.005Z,79.20
2023-02-25T19:21:01.860Z,79.39
2023-02-25T19:23:29.745Z,79.48
2023-02-25T19:26:00.139Z,79.25
2023-02-25T19:28:28.711Z,79.09
2023-02-25T19:30:56.556Z,79.17
2023-02-25T19:33:24.509Z,79.19
2023-02-25T19:35:52.646Z,79.24
2023-02-25T19:38:20.654Z,79.42
2023-02-25T19:40:48.781Z,79.47
2023-02-25T19:43:18.040Z,79.38
2023-02-25T19:45:45.965Z,79.31
2023-02-25T19:48:13.819Z,79.48
2023-02-25T19:50:41.709Z,79.58
2023-02-25T19:53:09.814Z,79.69
2023-02-25T19:55:39.045Z,79.70
2023-02-25T19:58:06.930Z,79.76
2023-02-25T20:00:34.807Z,79.88
2023-02-25T20:03:02.728Z,80.18
2023-02-25T20:05:30.617Z,79.92
2023-02-25T20:07:58.500Z,79.72
2023-02-25T20:10:26.292Z,79.89
2023-02-25T20:12:54.194Z,79.96
2023-02-25T20:15:22.019Z,80.13
2023-02-25T20:17:54.853Z,80.16
2023-02-25T20:20:23.828Z,80.06
2023-02-25T20:22:52.322Z,80.20
2023-02-25T20:25:20.526Z,80.41
2023-02-25T20:27:48.473Z,80.19
2023-02-25T20:30:17.700Z,80.33
2023-02-25T20:32:46.187Z,80.30
2023-02-25T20:35:20.579Z,80.25
2023-02-25T20:38:04.538Z,80.33
2023-02-25T20:40:33.766Z,80.35
2023-02-25T20:43:01.704Z,80.32
2023-02-25T20:45:29.917Z,80.35
2023-02-25T20:47:59.214Z,80.35
2023-02-25T20:50:29.302Z,80.33
2023-02-25T20:52:57.483Z,80.35
2023-02-25T20:55:25.386Z,80.32
2023-02-25T20:57:53.593Z,80.43
2023-02-25T21:00:21.779Z,80.50
2023-02-25T21:02:57.175Z,80.44
2023-02-25T21:05:25.175Z,80.45
2023-02-25T21:07:53.025Z,80.50
2023-02-25T21:10:20.944Z,80.63
2023-02-25T21:12:49.318Z,80.48
2023-02-25T21:15:17.400Z,80.42
2023-02-25T21:17:45.246Z,80.31
2023-02-25T21:20:13.396Z,80.19
2023-02-25T21:22:41.266Z,80.26
2023-02-25T21:25:09.373Z,80.44
2023-02-25T21:27:37.215Z,80.63
2023-02-25T21:30:06.544Z,80.64
2023-02-25T21:32:34.353Z,80.51
2023-02-25T21:35:02.245Z,80.69
2023-02-25T21:37:30.489Z,80.67
2023-02-25T21:39:58.296Z,80.62
2023-02-25T21:42:26.217Z,80.57
2023-02-25T21:44:54.311Z,80.44
2023-02-25T21:47:22.238Z,80.21
2023-02-25T21:49:51.366Z,80.01
2023-02-25T21:52:19.296Z,80.16
2023-02-25T21:54:47.142Z,80.08
2023-02-25T21:57:15.402Z,80.18
2023-02-25T21:59:43.264Z,80.10
2023-02-25T22:02:11.141Z,80.02
2023-02-25T22:04:39.010Z,79.91
2023-02-25T22:07:06.941Z,79.91
2023-02-25T22:09:34.787Z,80.07
2023-02-25T22:12:02.734Z,80.12
2023-02-25T22:14:30.529Z,80.32
2023-02-25T22:16:59.514Z,80.36
2023-02-25T22:19:28.260Z,80.49
2023-02-25T22:21:56.159Z,80.51
2023-02-25T22:24:24.152Z,80.40
2023-02-25T22:26:52.152Z,80.36
2023-02-25T22:29:21.746Z,80.27
2023-02-25T22:31:49.906Z,80.36
2023-02-25T22:34:18.130Z,80.10
2023-02-25T22:36:46.037Z,80.02
2023-02-25T22:39:13.895Z,79.95
2023-02-25T22:41:41.798Z,80.15
2023-02-25T22:44:09.725Z,80.05
2023-02-25T22:46:39.308Z,80.21
2023-02-25T22:49:08.244Z,80.31
2023-02-25T22:51:42.653Z,80.34
2023-02-25T22:54:16.484Z,80.25
2023-02-25T22:56:45.799Z,80.33
2023-02-25T22:59:14.496Z,80.27
2023-02-25T23:01:42.468Z,80.27
2023-02-25T23:04:10.556Z,80.22
2023-02-25T23:06:43.876Z,80.28
2023-02-25T23:09:14.409Z,80.28
2023-02-25T23:11:44.039Z,80.44
2023-02-25T23:14:12.850Z,80.54
2023-02-25T23:16:43.517Z,80.57
2023-02-25T23:19:15.977Z,80.59
2023-02-25T23:21:44.742Z,80.55
2023-02-25T23:24:18.517Z,80.46
2023-02-25T23:26:50.148Z,80.37
2023-02-25T23:29:18.194Z,80.46
2023-02-25T23:31:47.707Z,80.44
2023-02-25T23:34:25.125Z,80.53
2023-02-25T23:36:56.121Z,80.65
2023-02-25T23:39:24.235Z,80.59
2023-02-25T23:41:52.162Z,80.64
2023-02-25T23:44:20.164Z,80.64
2023-02-25T23:46:48.096Z,80.66
2023-02-25T23:49:17.720Z,80.75
2023-02-25T23:51:47.595Z,80.71
2023-02-25T23:54:19.087Z,80.81
2023-02-25T23:56:47.363Z,80.88
2023-02-25T23:59:15.460Z,80.79
